createdAt,value
2022-12-25T00:01:24.618Z,101162.77
2022-12-25T00:03:53.644Z,101164.73
2022-12-25T00:06:22.493Z,101169.19
2022-12-25T00:08:51.135Z,101168.72
2022-12-25T00:11:20.991Z,101170.99
2022-12-25T00:13:49.782Z,101173.65
2022-12-25T00:16:26.360Z,101178.39
2022-12-25T00:18:59.254Z,101179.87
2022-12-25T00:21:28.719Z,101177.66
2022-12-25T00:23:58.872Z,101182.95
2022-12-25T00:26:28.052Z,101186.44
2022-12-25T00:28:58.440Z,101187.36
2022-12-25T00:31:27.821Z,101193.44
2022-12-25T00:33:56.529Z,101194.09
2022-12-25T00:36:25.195Z,101192.29
2022-12-25T00:38:53.710Z,101192.81
2022-12-25T00:41:42.743Z,101185.41
2022-12-25T00:44:13.944Z,101188.45
2022-12-25T00:46:43.112Z,101193.02
2022-12-25T00:49:12.592Z,101193.35
2022-12-25T00:51:41.405Z,101197.31
2022-12-25T00:54:10.032Z,101198.10
2022-12-25T00:56:38.600Z,101196.52
2022-12-25T00:59:07.143Z,101193.77
2022-12-25T01:01:36.518Z,101195.39
2022-12-25T01:04:07.860Z,101194.17
2022-12-25T01:06:37.459Z,101195.16
2022-12-25T01:09:25.413Z,101194.75
2022-12-25T01:11:54.231Z,101196.55
2022-12-25T01:14:23.151Z,101194.05
2022-12-25T01:16:51.864Z,101193.85
2022-12-25T01:19:20.593Z,101198.75
2022-12-25T01:21:49.110Z,101200.65
2022-12-25T01:24:17.604Z,101198.79
2022-12-25T01:26:47.081Z,101203.92
2022-12-25T01:29:15.654Z,101203.27
2022-12-25T01:31:45.063Z,101196.15
2022-12-25T01:34:20.524Z,101191.63
2022-12-25T01:36:49.163Z,101200.55
2022-12-25T01:39:19.369Z,101200.11
2022-12-25T01:41:48.647Z,101201.48
2022-12-25T01:44:20.334Z,101197.66
2022-12-25T01:46:49.249Z,101194.09
2022-12-25T01:49:24.268Z,101191.77
2022-12-25T01:52:02.195Z,101194.23
2022-12-25T01:54:35.222Z,101191.52
2022-12-25T01:57:08.973Z,101195.77
2022-12-25T01:59:37.805Z,101200.73
2022-12-25T02:02:06.419Z,101200.40
2022-12-25T02:04:42.739Z,101197.84
2022-12-25T02:07:16.617Z,101201.30
2022-12-25T02:09:47.747Z,101200.77
2022-12-25T02:12:34.517Z,101204.52
2022-12-25T02:15:10.850Z,101204.83
2022-12-25T02:17:48.818Z,101204.67
2022-12-25T02:20:36.030Z,101207.33
2022-12-25T02:23:42.374Z,101208.02
2022-12-25T02:26:49.937Z,101213.77
2022-12-25T02:29:29.980Z,101211.89
2022-12-25T02:32:28.872Z,101213.08
2022-12-25T02:35:19.200Z,101209.29
2022-12-25T02:38:01.951Z,101214.20
2022-12-25T02:40:57.516Z,101219.16
2022-12-25T02:44:02.578Z,101219.42
2022-12-25T02:46:50.906Z,101223.09
2022-12-25T02:49:42.334Z,101225.48
2022-12-25T02:52:34.940Z,101228.05
2022-12-25T02:55:32.092Z,101232.02
2022-12-25T02:58:26.002Z,101236.03
2022-12-25T03:01:28.063Z,101236.36
2022-12-25T03:04:20.083Z,101238.85
2022-12-25T03:07:11.116Z,101237.23
2022-12-25T03:10:12.796Z,101246.04
2022-12-25T03:13:04.809Z,101255.24
2022-12-25T03:15:52.613Z,101255.48
2022-12-25T03:18:24.591Z,101259.14
2022-12-25T03:21:13.274Z,101269.02
2022-12-25T03:24:10.391Z,101274.25
2022-12-25T03:26:57.638Z,101280.23
2022-12-25T03:29:51.611Z,101280.52
2022-12-25T03:32:40.202Z,101281.15
2022-12-25T03:35:25.887Z,101279.66
2022-12-25T03:38:42.453Z,101283.27
2022-12-25T03:41:46.523Z,101289.06
2022-12-25T03:45:18.244Z,101293.66
2022-12-25T03:48:07.717Z,101292.96
2022-12-25T03:51:09.598Z,101289.91
2022-12-25T03:54:08.643Z,101288.92
2022-12-25T03:56:56.665Z,101291.42
2022-12-25T03:59:44.098Z,101297.39
2022-12-25T04:02:30.932Z,101297.81
2022-12-25T04:05:18.166Z,101301.16
2022-12-25T04:08:05.033Z,101302.57
2022-12-25T04:10:52.037Z,101306.02
2022-12-25T04:13:39.026Z,101310.27
2022-12-25T04:16:26.805Z,101314.80
2022-12-25T04:19:14.067Z,101313.02
2022-12-25T04:22:00.947Z,101313.06
2022-12-25T04:24:47.728Z,101312.05
2022-12-25T04:27:34.506Z,101315.02
2022-12-25T04:30:21.397Z,101319.06
2022-12-25T04:33:08.484Z,101327.50
2022-12-25T04:35:55.210Z,101331.39
2022-12-25T04:38:24.745Z,101336.29
2022-12-25T04:40:53.486Z,101337.70
2022-12-25T04:43:25.427Z,101338.19
2022-12-25T04:45:59.509Z,101335.53
2022-12-25T04:48:30.684Z,101337.35
2022-12-25T04:51:16.788Z,101335.95
2022-12-25T04:53:45.991Z,101339.15
2022-12-25T04:56:15.195Z,101342.23
2022-12-25T04:58:44.912Z,101345.66
2022-12-25T05:01:14.254Z,101347.23
2022-12-25T05:03:43.238Z,101352.62
2022-12-25T05:06:13.017Z,101356.63
2022-12-25T05:08:41.643Z,101366.49
2022-12-25T05:11:13.641Z,101366.43
2022-12-25T05:13:42.701Z,101368.64
2022-12-25T05:16:18.776Z,101370.59
2022-12-25T05:18:52.184Z,101376.01
2022-12-25T05:21:20.806Z,101379.36
2022-12-25T05:23:53.337Z,101382.44
2022-12-25T05:26:25.638Z,101386.05
2022-12-25T05:28:55.331Z,101387.05
2022-12-25T05:31:23.905Z,101391.59
2022-12-25T05:33:53.448Z,101395.08
2022-12-25T05:36:21.999Z,101402.23
2022-12-25T05:38:51.629Z,101407.48
2022-12-25T05:41:20.312Z,101413.37
2022-12-25T05:43:48.812Z,101418.28
2022-12-25T05:46:18.087Z,101417.58
2022-12-25T05:48:46.913Z,101417.95
2022-12-25T05:51:15.669Z,101419.14
2022-12-25T05:53:44.313Z,101419.85
2022-12-25T05:56:12.986Z,101420.66
2022-12-25T05:58:41.630Z,101423.77
2022-12-25T06:01:13.966Z,101428.41
2022-12-25T06:03:42.611Z,101431.15
2022-12-25T06:06:12.170Z,101433.36
2022-12-25T06:08:41.471Z,101436.98
2022-12-25T06:11:11.833Z,101435.07
2022-12-25T06:13:40.879Z,101438.98
2022-12-25T06:16:12.666Z,101438.05
2022-12-25T06:18:46.052Z,101438.55
2022-12-25T06:21:16.072Z,101443.04
2022-12-25T06:23:45.463Z,101445.91
2022-12-25T06:26:20.379Z,101453.16
2022-12-25T06:28:50.675Z,101453.31
2022-12-25T06:31:23.372Z,101456.06
2022-12-25T06:33:52.150Z,101459.02
2022-12-25T06:36:24.385Z,101460.39
2022-12-25T06:38:53.984Z,101466.73
2022-12-25T06:41:28.073Z,101472.97
2022-12-25T06:44:01.514Z,101481.77
2022-12-25T06:46:31.199Z,101489.05
2022-12-25T06:49:00.041Z,101494.03
2022-12-25T06:51:31.520Z,101499.27
2022-12-25T06:54:04.068Z,101506.80
2022-12-25T06:56:34.312Z,101509.86
2022-12-25T06:59:07.098Z,101517.06
2022-12-25T07:01:40.649Z,101524.22
2022-12-25T07:04:20.018Z,101529.31
2022-12-25T07:06:48.743Z,101535.54
2022-12-25T07:09:17.171Z,101538.36
2022-12-25T07:11:45.889Z,101537.70
2022-12-25T07:14:24.310Z,101539.76
2022-12-25T07:16:53.312Z,101539.59
2022-12-25T07:19:24.837Z,101541.87
2022-12-25T07:21:57.747Z,101544.30
2022-12-25T07:24:26.281Z,101545.58
2022-12-25T07:26:54.667Z,101544.63
2022-12-25T07:29:23.059Z,101543.80
2022-12-25T07:31:51.604Z,101548.45
2022-12-25T07:34:20.619Z,101553.11
2022-12-25T07:36:49.817Z,101555.30
2022-12-25T07:39:19.087Z,101559.26
2022-12-25T07:41:48.112Z,101566.23
2022-12-25T07:44:16.736Z,101567.15
2022-12-25T07:46:45.928Z,101573.28
2022-12-25T07:49:14.850Z,101580.60
2022-12-25T07:51:43.361Z,101586.90
2022-12-25T07:54:12.025Z,101590.19
2022-12-25T07:56:40.657Z,101591.45
2022-12-25T07:59:09.187Z,101594.02
2022-12-25T08:01:37.859Z,101598.96
2022-12-25T08:04:08.137Z,101604.30
2022-12-25T08:06:38.261Z,101607.21
2022-12-25T08:09:10.961Z,101612.88
2022-12-25T08:11:40.569Z,101618.94
2022-12-25T08:14:09.693Z,101622.59
2022-12-25T08:16:42.446Z,101622.77
2022-12-25T08:19:11.609Z,101624.32
2022-12-25T08:21:40.944Z,101626.88
2022-12-25T08:24:09.755Z,101630.89
2022-12-25T08:26:38.283Z,101631.95
2022-12-25T08:29:06.991Z,101630.86
2022-12-25T08:31:39.434Z,101634.92
2022-12-25T08:34:12.052Z,101634.39
2022-12-25T08:36:42.174Z,101637.55
2022-12-25T08:39:11.003Z,101642.58
2022-12-25T08:41:40.825Z,101644.45
2022-12-25T08:44:13.027Z,101645.53
2022-12-25T08:46:43.015Z,101648.35
2022-12-25T08:49:11.988Z,101654.96
2022-12-25T08:51:45.011Z,101659.45
2022-12-25T08:54:14.061Z,101657.59
2022-12-25T08:56:42.981Z,101659.09
2022-12-25T08:59:12.307Z,101662.13
2022-12-25T09:01:42.229Z,101666.27
2022-12-25T09:04:10.838Z,101667.41
2022-12-25T09:06:39.400Z,101667.25
2022-12-25T09:09:08.016Z,101673.52
2022-12-25T09:11:37.165Z,101674.89
2022-12-25T09:14:05.979Z,101676.67
2022-12-25T09:16:34.655Z,101677.05
2022-12-25T09:19:03.171Z,101680.68
2022-12-25T09:21:32.141Z,101680.84
2022-12-25T09:24:01.269Z,101681.43
2022-12-25T09:26:54.920Z,101681.84
2022-12-25T09:29:23.546Z,101691.06
2022-12-25T09:31:52.225Z,101692.79
2022-12-25T09:34:20.923Z,101697.33
2022-12-25T09:36:49.582Z,101702.60
2022-12-25T09:39:18.400Z,101700.77
2022-12-25T09:42:18.055Z,101704.43
2022-12-25T09:45:10.218Z,101708.48
2022-12-25T09:47:42.511Z,101707.69
2022-12-25T09:50:23.671Z,101709.83
2022-12-25T09:53:04.163Z,101707.48
2022-12-25T09:55:39.024Z,101708.70
2022-12-25T09:58:13.779Z,101705.67
2022-12-25T10:00:52.322Z,101702.95
2022-12-25T10:03:53.053Z,101701.70
2022-12-25T10:06:32.171Z,101707.34
2022-12-25T10:09:17.724Z,101706.66
2022-12-25T10:11:49.650Z,101712.41
2022-12-25T10:14:36.981Z,101710.72
2022-12-25T10:17:20.946Z,101707.44
2022-12-25T10:20:14.475Z,101707.61
2022-12-25T10:22:49.053Z,101702.42
2022-12-25T10:25:23.140Z,101704.05
2022-12-25T10:28:01.360Z,101706.58
2022-12-25T10:30:31.795Z,101703.92
2022-12-25T10:33:00.601Z,101704.91
2022-12-25T10:35:30.110Z,101703.66
2022-12-25T10:38:10.896Z,101704.56
2022-12-25T10:41:06.688Z,101704.91
2022-12-25T10:43:47.849Z,101709.28
2022-12-25T10:46:17.124Z,101710.85
2022-12-25T10:48:52.435Z,101715.48
2022-12-25T10:51:39.165Z,101714.33
2022-12-25T10:54:27.345Z,101720.88
2022-12-25T10:57:02.075Z,101722.00
2022-12-25T10:59:42.700Z,101721.41
2022-12-25T11:02:31.414Z,101730.41
2022-12-25T11:05:10.060Z,101730.83
2022-12-25T11:07:54.563Z,101733.77
2022-12-25T11:10:35.721Z,101737.19
2022-12-25T11:13:16.490Z,101740.39
2022-12-25T11:15:49.026Z,101741.66
2022-12-25T11:18:20.100Z,101743.59
2022-12-25T11:21:00.992Z,101747.98
2022-12-25T11:23:32.353Z,101750.11
2022-12-25T11:26:08.959Z,101755.31
2022-12-25T11:28:41.317Z,101754.52
2022-12-25T11:31:40.382Z,101756.35
2022-12-25T11:34:31.469Z,101758.88
2022-12-25T11:37:01.822Z,101762.35
2022-12-25T11:39:36.360Z,101759.98
2022-12-25T11:42:14.008Z,101756.75
2022-12-25T11:45:03.788Z,101761.02
2022-12-25T11:47:40.705Z,101755.45
2022-12-25T11:50:37.043Z,101758.42
2022-12-25T11:53:14.007Z,101757.13
2022-12-25T11:55:55.040Z,101755.73
2022-12-25T11:58:36.650Z,101764.69
2022-12-25T12:01:34.056Z,101773.47
2022-12-25T12:04:08.963Z,101778.27
2022-12-25T12:07:08.866Z,101784.02
2022-12-25T12:10:06.034Z,101782.58
2022-12-25T12:12:54.205Z,101783.91
2022-12-25T12:15:31.493Z,101786.73
2022-12-25T12:18:28.770Z,101785.71
2022-12-25T12:21:03.090Z,101791.15
2022-12-25T12:23:47.155Z,101794.26
2022-12-25T12:26:25.890Z,101787.59
2022-12-25T12:29:00.010Z,101790.92
2022-12-25T12:31:44.648Z,101792.11
2022-12-25T12:34:43.017Z,101794.77
2022-12-25T12:37:31.499Z,101801.70
2022-12-25T12:40:00.429Z,101804.66
2022-12-25T12:42:33.715Z,101813.07
2022-12-25T12:45:17.091Z,101819.53
2022-12-25T12:47:49.574Z,101814.15
2022-12-25T12:50:37.055Z,101815.44
2022-12-25T12:53:33.626Z,101821.97
2022-12-25T12:56:14.301Z,101827.66
2022-12-25T12:58:51.045Z,101840.61
2022-12-25T13:01:27.923Z,101836.81
2022-12-25T13:04:25.133Z,101844.86
2022-12-25T13:07:11.424Z,101843.77
2022-12-25T13:09:53.364Z,101849.39
2022-12-25T13:12:22.869Z,101852.14
2022-12-25T13:14:51.445Z,101853.05
2022-12-25T13:17:25.690Z,101850.56
2022-12-25T13:20:00.333Z,101861.20
2022-12-25T13:22:36.893Z,101855.02
2022-12-25T13:25:10.210Z,101853.74
2022-12-25T13:27:38.941Z,101858.23
2022-12-25T13:30:20.278Z,101860.25
2022-12-25T13:32:49.554Z,101861.79
2022-12-25T13:35:19.405Z,101865.69
2022-12-25T13:37:48.115Z,101880.05
2022-12-25T13:40:27.881Z,101885.88
2022-12-25T13:43:00.476Z,101894.63
2022-12-25T13:45:31.747Z,101893.35
2022-12-25T13:48:16.477Z,101898.30
2022-12-25T13:50:48.698Z,101901.00
2022-12-25T13:53:18.213Z,101901.90
2022-12-25T13:55:54.494Z,101905.79
2022-12-25T13:58:35.102Z,101911.27
2022-12-25T14:01:04.008Z,101911.27
2022-12-25T14:03:41.096Z,101912.54
2022-12-25T14:06:30.385Z,101917.67
2022-12-25T14:08:59.787Z,101918.02
2022-12-25T14:11:30.159Z,101919.67
2022-12-25T14:14:24.889Z,101921.85
2022-12-25T14:16:57.540Z,101921.60
2022-12-25T14:19:32.259Z,101920.77
2022-12-25T14:22:21.533Z,101923.64
2022-12-25T14:24:50.406Z,101930.96
2022-12-25T14:27:30.708Z,101931.71
2022-12-25T14:30:01.156Z,101934.11
2022-12-25T14:32:34.375Z,101937.08
2022-12-25T14:35:06.362Z,101937.65
2022-12-25T14:37:40.445Z,101937.67
2022-12-25T14:40:31.190Z,101943.18
2022-12-25T14:43:06.265Z,101955.85
2022-12-25T14:45:40.712Z,101958.93
2022-12-25T14:48:25.219Z,101964.17
2022-12-25T14:51:09.444Z,101970.36
2022-12-25T14:53:46.962Z,101968.10
2022-12-25T14:56:26.083Z,101971.94
2022-12-25T14:58:59.836Z,101974.16
2022-12-25T15:01:32.845Z,101979.03
2022-12-25T15:04:10.551Z,101976.09
2022-12-25T15:06:41.783Z,101974.86
2022-12-25T15:09:15.489Z,101975.06
2022-12-25T15:11:51.034Z,101979.89
2022-12-25T15:14:19.705Z,101982.69
2022-12-25T15:16:58.729Z,101986.35
2022-12-25T15:19:36.961Z,101990.04
2022-12-25T15:22:07.020Z,101993.67
2022-12-25T15:24:35.636Z,101991.48
2022-12-25T15:27:05.570Z,101993.38
2022-12-25T15:32:24.461Z,101998.45
2022-12-25T15:34:53.957Z,102011.48
2022-12-25T15:37:22.599Z,102014.81
2022-12-25T15:39:51.124Z,102017.24
2022-12-25T15:42:23.661Z,102017.44
2022-12-25T15:44:52.350Z,102013.63
2022-12-25T15:47:21.271Z,102017.35
2022-12-25T15:49:49.808Z,102017.29
2022-12-25T15:52:18.553Z,102022.45
2022-12-25T15:54:47.110Z,102021.87
2022-12-25T15:57:22.332Z,102021.62
2022-12-25T15:59:50.975Z,102025.58
2022-12-25T16:02:21.453Z,102031.63
2022-12-25T16:04:51.337Z,102029.89
2022-12-25T16:07:25.173Z,102032.79
2022-12-25T16:09:53.739Z,102034.41
2022-12-25T16:12:22.350Z,102036.27
2022-12-25T16:14:51.156Z,102038.24
2022-12-25T16:17:19.902Z,102037.75
2022-12-25T16:19:48.735Z,102035.81
2022-12-25T16:22:26.018Z,102037.69
2022-12-25T16:24:55.247Z,102037.98
2022-12-25T16:27:23.975Z,102046.04
2022-12-25T16:29:52.598Z,102053.38
2022-12-25T16:32:21.190Z,102056.08
2022-12-25T16:34:49.759Z,102058.48
2022-12-25T16:37:18.594Z,102059.86
2022-12-25T16:39:47.171Z,102063.16
2022-12-25T16:42:16.315Z,102066.83
2022-12-25T16:44:45.235Z,102068.83
2022-12-25T16:47:14.222Z,102073.48
2022-12-25T16:49:43.010Z,102076.27
2022-12-25T16:52:11.855Z,102075.17
2022-12-25T16:54:40.595Z,102074.76
2022-12-25T16:57:09.266Z,102072.20
2022-12-25T16:59:37.882Z,102072.08
2022-12-25T17:02:06.973Z,102072.66
2022-12-25T17:04:36.244Z,102075.08
2022-12-25T17:07:04.871Z,102080.00
2022-12-25T17:09:35.429Z,102080.63
2022-12-25T17:12:09.124Z,102089.00
2022-12-25T17:14:37.856Z,102088.67
2022-12-25T17:17:06.475Z,102090.08
2022-12-25T17:19:35.328Z,102087.51
2022-12-25T17:22:04.022Z,102088.55
2022-12-25T17:24:35.285Z,102086.70
2022-12-25T17:27:04.067Z,102092.38
2022-12-25T17:29:32.650Z,102087.46
2022-12-25T17:32:01.301Z,102092.05
2022-12-25T17:34:29.980Z,102095.24
2022-12-25T17:36:58.795Z,102097.07
2022-12-25T17:39:27.952Z,102102.75
2022-12-25T17:41:56.631Z,102106.70
2022-12-25T17:44:25.992Z,102102.70
2022-12-25T17:46:54.741Z,102106.53
2022-12-25T17:49:23.598Z,102114.04
2022-12-25T17:51:54.024Z,102113.11
2022-12-25T17:54:22.644Z,102108.81
2022-12-25T17:56:51.685Z,102108.60
2022-12-25T17:59:29.180Z,102111.99
2022-12-25T18:01:58.212Z,102109.27
2022-12-25T18:04:27.015Z,102106.37
2022-12-25T18:06:55.797Z,102103.63
2022-12-25T18:09:24.938Z,102097.86
2022-12-25T18:11:53.685Z,102099.14
2022-12-25T18:14:22.635Z,102096.65
2022-12-25T18:16:53.000Z,102090.64
2022-12-25T18:19:21.937Z,102100.19
2022-12-25T18:21:51.300Z,102106.17
2022-12-25T18:24:19.902Z,102108.76
2022-12-25T18:26:51.575Z,102110.05
2022-12-25T18:29:20.267Z,102113.14
2022-12-25T18:31:49.053Z,102121.98
2022-12-25T18:34:18.448Z,102121.71
2022-12-25T18:36:47.161Z,102127.45
2022-12-25T18:39:15.933Z,102126.17
2022-12-25T18:42:34.842Z,102122.13
2022-12-25T18:45:03.629Z,102124.94
2022-12-25T18:47:33.571Z,102125.31
2022-12-25T18:50:02.439Z,102125.23
2022-12-25T18:52:49.405Z,102129.44
2022-12-25T18:55:20.078Z,102128.10
2022-12-25T18:57:50.255Z,102133.54
2022-12-25T19:00:19.788Z,102139.27
2022-12-25T19:02:48.856Z,102139.05
2022-12-25T19:05:17.780Z,102141.27
2022-12-25T19:07:47.645Z,102148.40
2022-12-25T19:10:16.269Z,102152.23
2022-12-25T19:12:45.057Z,102153.32
2022-12-25T19:15:14.164Z,102157.99
2022-12-25T19:17:43.439Z,102162.70
2022-12-25T19:20:12.860Z,102162.69
2022-12-25T19:22:41.558Z,102160.92
2022-12-25T19:25:10.521Z,102163.98
2022-12-25T19:27:39.117Z,102164.34
2022-12-25T19:30:09.877Z,102172.41
2022-12-25T19:32:39.532Z,102176.47
2022-12-25T19:35:08.513Z,102183.48
2022-12-25T19:37:37.210Z,102182.39
2022-12-25T19:40:07.269Z,102188.19
2022-12-25T19:42:36.228Z,102196.22
2022-12-25T19:45:06.605Z,102200.05
2022-12-25T19:47:35.349Z,102211.45
2022-12-25T19:50:04.254Z,102219.08
2022-12-25T19:52:36.118Z,102216.45
2022-12-25T19:55:05.261Z,102216.54
2022-12-25T19:57:33.930Z,102216.83
2022-12-25T20:00:03.316Z,102216.12
2022-12-25T20:02:42.262Z,102218.75
2022-12-25T20:05:11.010Z,102217.95
2022-12-25T20:07:39.640Z,102218.46
2022-12-25T20:10:08.431Z,102214.65
2022-12-25T20:12:37.062Z,102219.84
2022-12-25T20:15:06.365Z,102221.75
2022-12-25T20:17:35.147Z,102219.94
2022-12-25T20:20:04.603Z,102222.95
2022-12-25T20:22:33.502Z,102222.48
2022-12-25T20:25:03.713Z,102225.86
2022-12-25T20:27:32.467Z,102230.13
2022-12-25T20:30:01.285Z,102235.25
2022-12-25T20:32:30.196Z,102236.05
2022-12-25T20:34:58.858Z,102236.98
2022-12-25T20:37:27.539Z,102231.34
2022-12-25T20:39:56.437Z,102223.95
2022-12-25T20:42:24.989Z,102221.98
2022-12-25T20:44:53.602Z,102220.77
2022-12-25T20:47:22.042Z,102216.01
2022-12-25T20:49:50.625Z,102212.02
2022-12-25T20:52:19.237Z,102214.29
2022-12-25T20:54:47.816Z,102219.66
2022-12-25T20:57:16.312Z,102222.85
2022-12-25T20:59:44.952Z,102226.42
2022-12-25T21:02:35.568Z,102229.67
2022-12-25T21:05:03.114Z,102234.70
2022-12-25T21:07:31.698Z,102233.35
2022-12-25T21:10:00.366Z,102237.84
2022-12-25T21:12:29.310Z,102241.65
2022-12-25T21:14:58.030Z,102240.10
2022-12-25T21:17:27.126Z,102239.20
2022-12-25T21:19:55.731Z,102241.46
2022-12-25T21:22:24.318Z,102242.16
2022-12-25T21:24:53.628Z,102243.11
2022-12-25T21:27:22.215Z,102244.52
2022-12-25T21:29:50.597Z,102247.45
2022-12-25T21:32:37.355Z,102251.43
2022-12-25T21:35:06.220Z,102251.72
2022-12-25T21:37:34.706Z,102251.33
2022-12-25T21:40:03.669Z,102256.80
2022-12-25T21:42:32.257Z,102267.56
2022-12-25T21:45:01.469Z,102269.39
2022-12-25T21:48:01.606Z,102271.40
2022-12-25T21:50:39.509Z,102274.52
2022-12-25T21:53:08.351Z,102277.91
2022-12-25T21:55:37.039Z,102275.67
2022-12-25T21:58:05.848Z,102277.39
2022-12-25T22:00:36.821Z,102281.02
2022-12-25T22:03:05.519Z,102283.35
2022-12-25T22:05:54.941Z,102281.11
2022-12-25T22:08:23.409Z,102283.29
2022-12-25T22:10:51.861Z,102280.77
2022-12-25T22:13:38.838Z,102278.90
2022-12-25T22:16:26.482Z,102281.27
2022-12-25T22:19:15.192Z,102283.12
2022-12-25T22:21:43.755Z,102290.96
2022-12-25T22:24:12.357Z,102291.95
2022-12-25T22:26:40.983Z,102288.34
2022-12-25T22:29:09.541Z,102287.52
2022-12-25T22:31:42.724Z,102281.15
2022-12-25T22:34:16.718Z,102279.30
2022-12-25T22:36:45.301Z,102271.58
2022-12-25T22:39:13.918Z,102275.58
2022-12-25T22:41:42.580Z,102288.20
2022-12-25T22:44:18.743Z,102294.25
2022-12-25T22:46:50.638Z,102300.09
2022-12-25T22:49:19.302Z,102299.17
2022-12-25T22:51:49.670Z,102285.95
2022-12-25T22:54:20.022Z,102284.83
2022-12-25T22:56:52.398Z,102289.58
2022-12-25T22:59:23.043Z,102296.77
2022-12-25T23:01:51.870Z,102309.73
2022-12-25T23:04:20.963Z,102310.98
2022-12-25T23:06:50.058Z,102306.47
2022-12-25T23:09:24.863Z,102317.52
2022-12-25T23:11:56.477Z,102326.69
2022-12-25T23:14:40.799Z,102310.95
2022-12-25T23:17:31.860Z,102306.55
2022-12-25T23:20:19.891Z,102315.91
2022-12-25T23:23:06.808Z,102322.25
2022-12-25T23:25:54.207Z,102320.77
2022-12-25T23:28:41.138Z,102317.87
2022-12-25T23:31:09.914Z,102310.41
2022-12-25T23:33:38.443Z,102305.06
2022-12-25T23:36:07.249Z,102303.98
2022-12-25T23:38:35.833Z,102304.24
2022-12-25T23:41:04.456Z,102311.83
2022-12-25T23:43:32.950Z,102307.33
2022-12-25T23:46:01.491Z,102303.86
2022-12-25T23:48:29.919Z,102314.35
2022-12-25T23:51:06.359Z,102323.48
2022-12-25T23:53:35.544Z,102333.96
2022-12-25T23:56:04.435Z,102344.70
2022-12-25T23:58:34.380Z,102343.45
